createdAt,value
2018-01-11T00:01:59.829Z,3.30
2018-01-11T00:04:27.323Z,3.30
2018-01-11T00:06:54.832Z,3.30
2018-01-11T00:09:22.355Z,3.40
2018-01-11T00:11:50.629Z,3.40
2018-01-11T00:14:19.016Z,3.40
2018-01-11T00:16:47.303Z,3.40
2018-01-11T00:19:14.788Z,3.40
2018-01-11T00:21:42.299Z,3.40
2018-01-11T00:24:10.560Z,3.40
2018-01-11T00:26:38.061Z,3.40
2018-01-11T00:29:05.564Z,3.40
2018-01-11T00:31:33.068Z,3.40
2018-01-11T00:34:00.619Z,3.40
2018-01-11T00:36:28.880Z,3.40
2018-01-11T00:38:57.144Z,3.30
2018-01-11T00:41:24.648Z,3.30
2018-01-11T00:43:52.140Z,3.30
2018-01-11T00:46:19.656Z,3.30
2018-01-11T00:48:47.156Z,3.30
2018-01-11T00:51:14.655Z,3.40
2018-01-11T00:53:42.958Z,3.30
2018-01-11T00:56:10.438Z,3.30
2018-01-11T00:58:37.950Z,3.30
2018-01-11T01:01:06.239Z,3.30
2018-01-11T01:03:33.727Z,3.30
2018-01-11T01:06:01.226Z,3.30
2018-01-11T01:08:28.803Z,3.20
2018-01-11T01:10:57.079Z,3.20
2018-01-11T01:13:24.580Z,3.20
2018-01-11T01:15:52.098Z,3.20
2018-01-11T01:18:20.371Z,3.30
2018-01-11T01:20:48.680Z,3.30
2018-01-11T01:23:16.180Z,3.30
2018-01-11T01:25:44.523Z,3.30
2018-01-11T01:28:12.051Z,3.20
2018-01-11T01:30:40.319Z,3.30
2018-01-11T01:33:08.576Z,3.30
2018-01-11T01:35:36.611Z,3.30
2018-01-11T01:38:04.091Z,3.30
2018-01-11T01:40:31.596Z,3.30
2018-01-11T01:42:59.085Z,3.40
2018-01-11T01:45:26.598Z,3.30
2018-01-11T01:47:54.852Z,3.40
2018-01-11T01:50:23.106Z,3.40
2018-01-11T01:52:50.597Z,3.40
2018-01-11T01:55:18.088Z,3.40
2018-01-11T01:57:45.636Z,3.40
2018-01-11T02:00:13.907Z,3.30
2018-01-11T02:02:42.189Z,3.30
2018-01-11T02:05:09.691Z,3.30
2018-01-11T02:07:37.180Z,3.30
2018-01-11T02:10:04.659Z,3.30
2018-01-11T02:12:32.928Z,3.30
2018-01-11T02:15:01.179Z,3.30
2018-01-11T02:17:28.772Z,3.30
2018-01-11T02:19:57.030Z,3.30
2018-01-11T02:22:24.606Z,3.30
2018-01-11T02:24:52.851Z,3.40
2018-01-11T02:27:20.352Z,3.40
2018-01-11T02:29:47.834Z,3.40
2018-01-11T02:32:15.342Z,3.40
2018-01-11T02:34:43.609Z,3.40
2018-01-11T02:37:11.115Z,3.40
2018-01-11T02:39:38.614Z,3.40
2018-01-11T02:42:06.113Z,3.40
2018-01-11T02:44:34.375Z,3.40
2018-01-11T02:47:02.624Z,3.40
2018-01-11T02:49:30.224Z,3.40
2018-01-11T02:51:58.494Z,3.40
2018-01-11T02:54:26.775Z,3.40
2018-01-11T02:56:55.047Z,3.40
2018-01-11T02:59:23.319Z,3.40
2018-01-11T03:01:51.604Z,3.40
2018-01-11T03:04:19.857Z,3.40
2018-01-11T03:06:47.352Z,3.40
2018-01-11T03:09:14.890Z,3.40
2018-01-11T03:11:43.151Z,3.50
2018-01-11T03:14:10.641Z,3.40
2018-01-11T03:16:38.129Z,3.50
2018-01-11T03:19:05.841Z,3.50
2018-01-11T03:21:34.131Z,3.50
2018-01-11T03:24:02.379Z,3.50
2018-01-11T03:26:29.881Z,3.50
2018-01-11T03:28:57.353Z,3.50
2018-01-11T03:31:24.858Z,3.50
2018-01-11T03:33:52.350Z,3.50
2018-01-11T03:36:19.844Z,3.50
2018-01-11T03:38:47.331Z,3.50
2018-01-11T03:41:14.825Z,3.50
2018-01-11T03:43:42.317Z,3.40
2018-01-11T03:46:09.813Z,3.40
2018-01-11T03:48:38.110Z,3.50
2018-01-11T03:51:06.363Z,3.40
2018-01-11T03:53:33.935Z,3.50
2018-01-11T03:56:02.221Z,3.40
2018-01-11T03:58:30.497Z,3.50
2018-01-11T04:00:58.104Z,3.50
2018-01-11T04:03:25.594Z,3.40
2018-01-11T04:05:53.087Z,3.40
2018-01-11T04:08:20.583Z,3.40
2018-01-11T04:10:48.088Z,3.40
2018-01-11T04:13:16.334Z,3.40
2018-01-11T04:15:44.651Z,3.40
2018-01-11T04:18:12.205Z,3.40
2018-01-11T04:20:39.773Z,3.40
2018-01-11T04:23:07.271Z,3.40
2018-01-11T04:25:34.903Z,3.40
2018-01-11T04:28:02.420Z,3.40
2018-01-11T04:30:29.907Z,3.40
2018-01-11T04:32:57.443Z,3.40
2018-01-11T04:35:25.769Z,3.40
2018-01-11T04:37:53.294Z,3.40
2018-01-11T04:40:21.584Z,3.50
2018-01-11T04:42:49.128Z,3.50
2018-01-11T04:45:17.386Z,3.50
2018-01-11T04:47:45.683Z,3.50
2018-01-11T04:50:13.957Z,3.50
2018-01-11T04:52:42.221Z,3.50
2018-01-11T04:55:10.509Z,3.50
2018-01-11T04:57:38.785Z,3.60
2018-01-11T05:00:07.062Z,3.60
2018-01-11T05:02:35.370Z,3.60
2018-01-11T05:05:02.892Z,3.60
2018-01-11T05:07:31.171Z,3.50
2018-01-11T05:09:59.431Z,3.50
2018-01-11T05:12:27.086Z,3.60
2018-01-11T05:14:54.559Z,3.60
2018-01-11T05:17:22.067Z,3.50
2018-01-11T05:19:49.596Z,3.50
2018-01-11T05:22:17.863Z,3.50
2018-01-11T05:24:46.109Z,3.50
2018-01-11T05:27:13.615Z,3.50
2018-01-11T05:29:41.127Z,3.60
2018-01-11T05:32:08.626Z,3.60
2018-01-11T05:34:36.146Z,3.60
2018-01-11T05:37:03.636Z,3.60
2018-01-11T05:39:31.914Z,3.50
2018-01-11T05:41:59.569Z,3.50
2018-01-11T05:44:27.883Z,3.60
2018-01-11T05:46:55.379Z,3.60
2018-01-11T05:49:22.864Z,3.60
2018-01-11T05:51:51.164Z,3.70
2018-01-11T05:54:18.700Z,3.70
2018-01-11T05:56:46.979Z,3.60
2018-01-11T05:59:15.229Z,3.60
2018-01-11T06:01:42.720Z,3.60
2018-01-11T06:04:10.958Z,3.60
2018-01-11T06:06:39.224Z,3.60
2018-01-11T06:09:06.714Z,3.60
2018-01-11T06:11:35.031Z,3.60
2018-01-11T06:14:02.538Z,3.60
2018-01-11T06:16:30.037Z,3.70
2018-01-11T06:18:57.528Z,3.70
2018-01-11T06:21:25.049Z,3.70
2018-01-11T06:23:52.585Z,3.60
2018-01-11T06:26:20.692Z,3.60
2018-01-11T06:28:48.227Z,3.60
2018-01-11T06:31:16.491Z,3.70
2018-01-11T06:33:44.847Z,3.70
2018-01-11T06:36:12.430Z,3.70
2018-01-11T06:38:40.691Z,3.60
2018-01-11T06:41:08.956Z,3.60
2018-01-11T06:43:36.438Z,3.60
2018-01-11T06:46:04.723Z,3.60
2018-01-11T06:48:32.981Z,3.50
2018-01-11T06:51:00.494Z,3.50
2018-01-11T06:53:28.019Z,3.60
2018-01-11T06:55:55.593Z,3.60
2018-01-11T06:58:23.071Z,3.60
2018-01-11T07:00:50.557Z,3.50
2018-01-11T07:03:18.038Z,3.50
2018-01-11T07:05:46.313Z,3.60
2018-01-11T07:08:13.822Z,3.60
2018-01-11T07:10:41.314Z,3.60
2018-01-11T07:13:08.792Z,3.50
2018-01-11T07:15:37.051Z,4.00
2018-01-11T07:18:06.048Z,5.00
2018-01-11T07:20:33.553Z,5.00
2018-01-11T07:23:01.087Z,4.60
2018-01-11T07:25:29.351Z,3.90
2018-01-11T07:27:56.849Z,3.90
2018-01-11T07:30:24.345Z,3.70
2018-01-11T07:32:51.897Z,3.70
2018-01-11T07:35:19.393Z,3.70
2018-01-11T07:37:47.645Z,3.50
2018-01-11T07:40:15.354Z,3.50
2018-01-11T07:42:42.926Z,3.60
2018-01-11T07:45:10.435Z,3.60
2018-01-11T07:47:38.020Z,3.50
2018-01-11T07:50:05.817Z,3.50
2018-01-11T07:52:33.328Z,3.50
2018-01-11T07:55:01.632Z,3.40
2018-01-11T07:57:29.191Z,3.40
2018-01-11T07:59:56.666Z,3.50
2018-01-11T08:02:24.198Z,3.40
2018-01-11T08:04:51.691Z,3.40
2018-01-11T08:07:19.179Z,3.50
2018-01-11T08:09:46.713Z,3.50
2018-01-11T08:12:14.249Z,3.50
2018-01-11T08:14:41.740Z,3.50
2018-01-11T08:17:09.247Z,3.50
2018-01-11T08:19:37.639Z,3.50
2018-01-11T08:22:05.151Z,3.50
2018-01-11T08:24:32.656Z,3.50
2018-01-11T08:27:00.236Z,3.50
2018-01-11T08:29:27.772Z,3.60
2018-01-11T08:31:55.274Z,3.60
2018-01-11T08:34:22.784Z,3.60
2018-01-11T08:36:51.060Z,3.60
2018-01-11T08:39:18.542Z,3.70
2018-01-11T08:41:46.091Z,3.60
2018-01-11T08:44:13.799Z,3.60
2018-01-11T08:46:42.346Z,3.70
2018-01-11T08:49:09.871Z,3.70
2018-01-11T08:51:38.128Z,3.70
2018-01-11T08:54:07.241Z,3.70
2018-01-11T08:56:35.519Z,3.70
2018-01-11T08:59:03.779Z,3.60
2018-01-11T09:01:31.286Z,3.60
2018-01-11T09:03:58.811Z,3.70
2018-01-11T09:06:27.069Z,3.70
2018-01-11T09:08:54.611Z,3.70
2018-01-11T09:11:22.078Z,3.70
2018-01-11T09:13:50.369Z,3.80
2018-01-11T09:16:17.948Z,3.90
2018-01-11T09:18:46.230Z,4.00
2018-01-11T09:21:14.502Z,4.00
2018-01-11T09:23:42.850Z,3.90
2018-01-11T09:26:10.361Z,3.80
2018-01-11T09:28:37.848Z,3.90
2018-01-11T09:31:05.356Z,4.00
2018-01-11T09:33:33.641Z,4.00
2018-01-11T09:36:01.180Z,3.90
2018-01-11T09:38:29.429Z,4.10
2018-01-11T09:40:56.926Z,4.10
2018-01-11T09:43:24.493Z,4.10
2018-01-11T09:45:51.979Z,4.10
2018-01-11T09:48:19.504Z,4.20
2018-01-11T09:50:47.777Z,4.10
2018-01-11T09:53:16.024Z,4.10
2018-01-11T09:55:44.072Z,4.10
2018-01-11T09:58:11.582Z,4.20
2018-01-11T10:00:39.858Z,4.20
2018-01-11T10:03:08.120Z,4.20
2018-01-11T10:05:35.616Z,4.20
2018-01-11T10:08:03.152Z,4.20
2018-01-11T10:10:31.402Z,4.30
2018-01-11T10:12:58.988Z,4.30
2018-01-11T10:15:27.290Z,4.30
2018-01-11T10:17:54.783Z,4.20
2018-01-11T10:20:22.374Z,4.30
2018-01-11T10:22:50.656Z,4.20
2018-01-11T10:25:18.906Z,4.20
2018-01-11T10:27:46.496Z,4.20
2018-01-11T10:30:14.750Z,4.30
2018-01-11T10:32:42.327Z,4.30
2018-01-11T10:35:10.608Z,4.50
2018-01-11T10:37:38.880Z,4.60
2018-01-11T10:40:07.842Z,4.70
2018-01-11T10:42:35.435Z,4.70
2018-01-11T10:45:04.979Z,4.80
2018-01-11T10:47:32.478Z,4.80
2018-01-11T10:49:59.972Z,5.00
2018-01-11T10:52:27.468Z,5.20
2018-01-11T10:54:55.000Z,5.20
2018-01-11T10:57:22.503Z,5.20
2018-01-11T10:59:49.978Z,5.00
2018-01-11T11:02:23.244Z,5.10
2018-01-11T11:04:50.748Z,5.10
2018-01-11T11:07:19.024Z,5.00
2018-01-11T11:09:47.282Z,5.00
2018-01-11T11:12:14.857Z,5.00
2018-01-11T11:14:43.139Z,4.80
2018-01-11T11:17:11.419Z,4.70
2018-01-11T11:19:38.912Z,4.70
2018-01-11T11:22:06.426Z,4.70
2018-01-11T11:24:34.708Z,4.60
2018-01-11T11:27:02.966Z,4.60
2018-01-11T11:29:30.463Z,4.60
2018-01-11T11:31:58.664Z,4.60
2018-01-11T11:34:26.171Z,4.70
2018-01-11T11:36:54.443Z,4.80
2018-01-11T11:39:22.719Z,4.80
2018-01-11T11:41:50.968Z,4.90
2018-01-11T11:44:19.960Z,4.90
2018-01-11T11:46:47.564Z,4.90
2018-01-11T11:49:15.806Z,5.00
2018-01-11T11:51:43.298Z,5.00
2018-01-11T11:54:10.845Z,5.00
2018-01-11T11:56:39.106Z,5.20
2018-01-11T11:59:06.685Z,5.10
2018-01-11T12:01:34.945Z,5.10
2018-01-11T12:04:03.232Z,5.10
2018-01-11T12:06:30.719Z,5.10
2018-01-11T12:08:58.224Z,5.10
2018-01-11T12:11:26.485Z,5.20
2018-01-11T12:13:53.967Z,5.10
2018-01-11T12:16:21.481Z,5.20
2018-01-11T12:18:48.977Z,5.10
2018-01-11T12:21:16.556Z,5.00
2018-01-11T12:23:44.812Z,5.10
2018-01-11T12:26:13.078Z,5.10
2018-01-11T12:28:40.558Z,5.10
2018-01-11T12:31:08.051Z,5.10
2018-01-11T12:33:35.598Z,5.10
2018-01-11T12:36:03.868Z,5.10
2018-01-11T12:38:32.189Z,5.00
2018-01-11T12:40:59.696Z,5.00
2018-01-11T12:43:27.956Z,5.10
2018-01-11T12:45:55.446Z,5.10
2018-01-11T12:48:23.044Z,5.10
2018-01-11T12:50:50.539Z,5.10
2018-01-11T12:53:18.045Z,5.20
2018-01-11T12:55:45.549Z,5.20
2018-01-11T12:58:13.034Z,5.10
2018-01-11T13:00:41.302Z,5.00
2018-01-11T13:03:09.713Z,5.10
2018-01-11T13:05:37.272Z,5.00
2018-01-11T13:08:04.804Z,5.00
2018-01-11T13:10:33.080Z,5.00
2018-01-11T13:13:01.335Z,5.00
2018-01-11T13:15:28.834Z,5.00
2018-01-11T13:17:56.383Z,5.00
2018-01-11T13:20:24.640Z,4.90
2018-01-11T13:22:52.136Z,4.90
2018-01-11T13:25:19.634Z,4.90
2018-01-11T13:27:47.115Z,4.90
2018-01-11T13:30:15.372Z,4.90
2018-01-11T13:32:42.861Z,4.90
2018-01-11T13:35:11.129Z,4.80
2018-01-11T13:37:39.392Z,4.90
2018-01-11T13:40:06.968Z,4.90
2018-01-11T13:42:35.232Z,4.90
2018-01-11T13:45:02.715Z,4.90
2018-01-11T13:47:30.203Z,4.80
2018-01-11T13:49:57.727Z,4.90
2018-01-11T13:52:26.002Z,4.80
2018-01-11T13:54:54.287Z,4.80
2018-01-11T13:57:21.892Z,4.80
2018-01-11T13:59:49.371Z,4.80
2018-01-11T14:02:16.861Z,4.70
2018-01-11T14:04:45.109Z,4.70
2018-01-11T14:07:12.760Z,4.70
2018-01-11T14:09:41.766Z,4.70
2018-01-11T14:12:09.367Z,4.60
2018-01-11T14:14:36.904Z,4.70
2018-01-11T14:17:05.167Z,4.70
2018-01-11T14:19:32.911Z,4.70
2018-01-11T14:22:01.248Z,4.80
2018-01-11T14:24:28.853Z,4.80
2018-01-11T14:26:56.447Z,4.90
2018-01-11T14:29:24.781Z,4.80
2018-01-11T14:31:52.373Z,4.80
2018-01-11T14:34:20.631Z,4.80
2018-01-11T14:36:48.117Z,4.80
2018-01-11T14:39:16.372Z,4.90
2018-01-11T14:41:43.962Z,4.80
2018-01-11T14:44:11.471Z,4.90
2018-01-11T14:46:38.992Z,4.80
2018-01-11T14:49:07.251Z,4.80
2018-01-11T14:51:34.762Z,4.70
2018-01-11T14:54:02.297Z,4.70
2018-01-11T14:56:29.802Z,4.70
2018-01-11T14:58:57.291Z,4.70
2018-01-11T15:01:24.811Z,4.70
2018-01-11T15:03:52.314Z,4.70
2018-01-11T15:06:19.854Z,4.80
2018-01-11T15:08:48.102Z,4.70
2018-01-11T15:11:17.123Z,4.70
2018-01-11T15:13:45.383Z,4.70
2018-01-11T15:16:12.960Z,4.70
2018-01-11T15:18:41.235Z,4.70
2018-01-11T15:21:09.497Z,4.70
2018-01-11T15:23:36.983Z,4.70
2018-01-11T15:26:04.470Z,4.70
2018-01-11T15:28:32.000Z,4.60
2018-01-11T15:30:59.550Z,4.60
2018-01-11T15:33:27.046Z,4.70
2018-01-11T15:35:54.543Z,4.60
2018-01-11T15:38:22.044Z,4.60
2018-01-11T15:40:49.551Z,4.60
2018-01-11T15:43:17.035Z,4.60
2018-01-11T15:45:45.305Z,4.60
2018-01-11T15:48:12.883Z,4.60
2018-01-11T15:50:41.138Z,4.60
2018-01-11T15:53:08.616Z,4.60
2018-01-11T15:55:36.103Z,4.60
2018-01-11T15:58:03.666Z,4.60
2018-01-11T16:00:31.177Z,4.60
2018-01-11T16:02:59.483Z,4.60
2018-01-11T16:05:27.038Z,4.60
2018-01-11T16:07:54.514Z,4.60
2018-01-11T16:10:22.012Z,4.50
2018-01-11T16:12:51.036Z,4.60
2018-01-11T16:15:19.393Z,4.60
2018-01-11T16:17:47.669Z,4.60
2018-01-11T16:20:15.169Z,4.50
2018-01-11T16:22:42.706Z,4.50
2018-01-11T16:25:11.125Z,4.50
2018-01-11T16:27:38.614Z,4.50
2018-01-11T16:30:06.103Z,4.50
2018-01-11T16:32:34.363Z,4.50
2018-01-11T16:35:02.651Z,4.50
2018-01-11T16:37:30.923Z,4.50
2018-01-11T16:39:59.187Z,4.50
2018-01-11T16:42:26.683Z,4.50
2018-01-11T16:44:54.219Z,4.50
2018-01-11T16:47:22.496Z,4.50
2018-01-11T16:49:50.774Z,4.50
2018-01-11T16:52:19.040Z,4.50
2018-01-11T16:54:47.374Z,4.50
2018-01-11T16:57:14.879Z,4.40
2018-01-11T16:59:43.157Z,4.50
2018-01-11T17:02:10.734Z,4.40
2018-01-11T17:04:38.251Z,4.40
2018-01-11T17:07:05.739Z,4.40
2018-01-11T17:09:33.996Z,4.40
2018-01-11T17:12:02.253Z,4.40
2018-01-11T17:14:29.873Z,4.40
2018-01-11T17:16:57.366Z,4.40
2018-01-11T17:19:24.875Z,4.40
2018-01-11T17:21:53.146Z,4.40
2018-01-11T17:24:21.394Z,4.50
2018-01-11T17:26:48.887Z,4.50
2018-01-11T17:29:17.157Z,4.50
2018-01-11T17:31:45.431Z,4.50
2018-01-11T17:34:14.620Z,4.50
2018-01-11T17:36:42.886Z,4.50
2018-01-11T17:39:10.373Z,4.50
2018-01-11T17:41:38.635Z,4.40
2018-01-11T17:44:06.884Z,4.40
2018-01-11T17:46:34.472Z,4.40
2018-01-11T17:49:02.742Z,4.40
2018-01-11T17:51:30.236Z,4.40
2018-01-11T17:53:57.737Z,4.40
2018-01-11T17:56:25.230Z,4.40
2018-01-11T17:58:53.513Z,4.40
2018-01-11T18:01:21.803Z,4.40
2018-01-11T18:03:49.351Z,4.40
2018-01-11T18:06:16.838Z,4.40
2018-01-11T18:08:45.140Z,4.40
2018-01-11T18:11:12.732Z,4.40
2018-01-11T18:13:40.988Z,4.40
2018-01-11T18:16:08.646Z,4.40
2018-01-11T18:18:36.129Z,4.40
2018-01-11T18:21:04.398Z,4.50
2018-01-11T18:23:31.926Z,4.40
2018-01-11T18:25:59.410Z,4.40
2018-01-11T18:28:27.690Z,4.50
2018-01-11T18:30:55.179Z,4.40
2018-01-11T18:33:22.721Z,4.50
2018-01-11T18:35:50.979Z,4.50
2018-01-11T18:38:18.507Z,4.40
2018-01-11T18:40:46.028Z,4.50
2018-01-11T18:43:13.515Z,4.40
2018-01-11T18:45:40.997Z,4.40
2018-01-11T18:48:08.500Z,4.40
2018-01-11T18:50:36.012Z,4.40
2018-01-11T18:53:03.637Z,4.40
2018-01-11T18:55:31.159Z,4.40
2018-01-11T18:57:59.410Z,4.50
2018-01-11T19:00:27.675Z,4.60
2018-01-11T19:02:55.159Z,4.50
2018-01-11T19:05:22.736Z,4.60
2018-01-11T19:07:50.983Z,4.70
2018-01-11T19:10:18.585Z,4.70
2018-01-11T19:12:46.078Z,4.70
2018-01-11T19:15:13.690Z,4.70
2018-01-11T19:17:41.963Z,6.10
2018-01-11T19:20:10.225Z,7.80
2018-01-11T19:22:37.725Z,7.80
2018-01-11T19:25:05.237Z,8.10
2018-01-11T19:27:32.725Z,6.80
2018-01-11T19:30:00.980Z,5.60
2018-01-11T19:32:28.487Z,5.60
2018-01-11T19:34:55.966Z,5.20
2018-01-11T19:37:23.449Z,5.10
2018-01-11T19:39:50.942Z,5.00
2018-01-11T19:42:18.426Z,4.90
2018-01-11T19:44:45.945Z,4.80
2018-01-11T19:47:14.252Z,4.70
2018-01-11T19:49:41.775Z,4.70
2018-01-11T19:52:10.036Z,4.70
2018-01-11T19:54:38.321Z,4.70
2018-01-11T19:57:06.639Z,4.70
2018-01-11T19:59:34.160Z,4.70
2018-01-11T20:02:01.695Z,4.70
2018-01-11T20:04:29.286Z,4.80
2018-01-11T20:06:57.575Z,4.80
2018-01-11T20:09:25.080Z,4.80
2018-01-11T20:11:52.677Z,4.70
2018-01-11T20:14:20.930Z,4.80
2018-01-11T20:16:48.428Z,4.80
2018-01-11T20:19:15.971Z,4.80
2018-01-11T20:21:44.269Z,4.80
2018-01-11T20:24:11.765Z,4.90
2018-01-11T20:26:39.274Z,4.80
2018-01-11T20:29:07.561Z,4.90
2018-01-11T20:31:35.058Z,4.90
2018-01-11T20:34:02.538Z,4.80
2018-01-11T20:36:30.798Z,4.70
2018-01-11T20:38:58.307Z,4.70
2018-01-11T20:41:26.576Z,4.60
2018-01-11T20:43:54.864Z,4.60
2018-01-11T20:46:22.368Z,4.60
2018-01-11T20:48:49.857Z,4.50
2018-01-11T20:51:17.347Z,4.60
2018-01-11T20:53:44.829Z,4.60
2018-01-11T20:56:12.345Z,4.60
2018-01-11T20:58:40.615Z,4.60
2018-01-11T21:01:08.906Z,4.60
2018-01-11T21:03:36.440Z,4.60
2018-01-11T21:06:03.923Z,4.60
2018-01-11T21:08:31.431Z,4.50
2018-01-11T21:10:58.923Z,4.50
2018-01-11T21:13:27.207Z,4.50
2018-01-11T21:15:55.464Z,4.50
2018-01-11T21:18:22.969Z,4.50
2018-01-11T21:20:50.459Z,4.50
2018-01-11T21:23:17.950Z,4.40
2018-01-11T21:25:46.214Z,5.60
2018-01-11T21:28:13.800Z,5.60
2018-01-11T21:30:41.366Z,5.80
2018-01-11T21:33:08.863Z,5.30
2018-01-11T21:35:36.363Z,5.00
2018-01-11T21:38:04.658Z,4.70
2018-01-11T21:40:32.213Z,4.70
2018-01-11T21:43:00.489Z,4.60
2018-01-11T21:45:28.743Z,4.50
2018-01-11T21:47:56.231Z,4.50
2018-01-11T21:50:23.740Z,4.40
2018-01-11T21:52:51.233Z,4.40
2018-01-11T21:55:19.492Z,4.40
2018-01-11T21:57:47.017Z,4.40
2018-01-11T22:00:14.541Z,4.40
2018-01-11T22:02:42.032Z,4.30
2018-01-11T22:05:09.558Z,4.30
2018-01-11T22:07:37.059Z,4.20
2018-01-11T22:10:04.564Z,4.20
2018-01-11T22:12:32.853Z,4.20
2018-01-11T22:15:00.347Z,4.20
2018-01-11T22:17:27.858Z,4.20
2018-01-11T22:19:55.370Z,4.20
2018-01-11T22:22:22.873Z,4.10
2018-01-11T22:24:51.177Z,4.10
2018-01-11T22:27:18.675Z,4.10
2018-01-11T22:29:46.921Z,4.00
2018-01-11T22:32:14.415Z,4.00
2018-01-11T22:34:42.679Z,4.00
2018-01-11T22:37:10.188Z,4.00
2018-01-11T22:39:37.687Z,4.00
2018-01-11T22:42:05.196Z,4.00
2018-01-11T22:44:32.697Z,4.00
2018-01-11T22:47:00.272Z,4.00
2018-01-11T22:49:27.763Z,4.00
2018-01-11T22:51:56.040Z,4.00
2018-01-11T22:54:24.287Z,4.00
2018-01-11T22:56:51.885Z,3.90
2018-01-11T22:59:20.147Z,3.90
2018-01-11T23:01:48.411Z,3.90
2018-01-11T23:04:15.920Z,3.90
2018-01-11T23:06:44.335Z,3.90
2018-01-11T23:09:11.774Z,3.90
2018-01-11T23:11:43.086Z,3.80
2018-01-11T23:14:10.633Z,3.90
2018-01-11T23:16:38.899Z,3.90
2018-01-11T23:19:07.155Z,3.90
2018-01-11T23:21:34.648Z,3.90
2018-01-11T23:24:02.898Z,3.90
2018-01-11T23:26:30.475Z,3.90
2018-01-11T23:28:58.781Z,3.90
2018-01-11T23:31:26.277Z,3.90
2018-01-11T23:33:54.034Z,3.90
2018-01-11T23:36:21.540Z,3.90
2018-01-11T23:38:49.785Z,3.90
2018-01-11T23:41:18.038Z,3.90
2018-01-11T23:43:45.542Z,3.90
2018-01-11T23:46:13.794Z,3.90
2018-01-11T23:48:42.126Z,3.90
2018-01-11T23:51:09.623Z,3.90
2018-01-11T23:53:37.102Z,3.90
2018-01-11T23:56:04.603Z,4.00
2018-01-11T23:58:32.115Z,3.90
